Terminal Aerodrome Forecast
Issued by NWS

Home | Current Version | Previous Version | Text Only | Print | Product List | Glossary On
Versions: 1 2 3 4 5 6 7 8 9 10 11 12 13 14 15 16 17 18 19 20 21 22 23 24 25 26 27 28
991
FTUS45 KREV 261740
TAFTVL
TAF
KTVL 261740Z 2618/2718 19011G20KT P6SM BKN050 OVC080
     FM262200 19010G18KT P6SM VCSH BKN040 OVC070
     FM270300 19008G16KT 5SM -SHRASN BKN030 OVC050
      TEMPO 2705/2709 2SM -SN BKN012 OVC025
     FM271200 19006KT P6SM VCSH SCT015 OVC035=

USA.gov is the U.S. government's official web portal to all federal, state and local government web resources and services.